Terminal Aerodrome Forecast
Issued by NWS Newport/Morehead City, NC

Home | Current Version | Previous Version | Graphics & Text | Print | Product List | Glossary On
Versions: 1 2 3 4 5 6 7 8 9 10 11 12 13 14 15 16
000
FTUS42 KMHX 111200 AAA
TAFEWN
TAF AMD
KEWN 111220Z 1112/1212 00000KT P6SM SCT020 OVC150
      TEMPO 1112/1114 BKN008
     FM111400 20004KT P6SM VCSH BKN035 OVC100
     FM111800 VRB05KT P6SM VCTS SCT020 BKN040CB
     FM120000 16005KT P6SM BKN045=

USA.gov is the U.S. government's official web portal to all federal, state and local government web resources and services.